createdAt,value
2019-01-30T10:14:50.038Z,81.1
2019-01-30T10:16:50.145Z,81.4
2019-01-30T10:18:50.236Z,80.5
2019-01-30T10:20:50.397Z,78.8
2019-01-30T10:22:50.429Z,80.1
2019-01-30T10:24:51.046Z,78.9
2019-01-30T10:26:50.296Z,78.9
2019-01-30T10:28:50.310Z,78.1
2019-01-30T10:30:50.342Z,77.5
2019-01-30T10:32:50.410Z,77.1
2019-01-30T10:34:50.729Z,74.9
2019-01-30T10:36:49.956Z,73.1
2019-01-30T10:38:50.040Z,72.9
2019-01-30T10:40:50.079Z,72.9
2019-01-30T10:42:50.010Z,73.4
2019-01-30T10:44:50.011Z,73.9
2019-01-30T10:46:50.239Z,71.2
2019-01-30T10:48:50.302Z,70.8
2019-01-30T10:50:50.273Z,70.2
2019-01-30T10:52:50.472Z,70.7
2019-01-30T10:54:50.485Z,71.8
2019-01-30T10:56:49.817Z,71.4
2019-01-30T10:58:49.814Z,70.7
2019-01-30T11:00:49.876Z,71.1
2019-01-30T11:02:49.967Z,71.1
2019-01-30T11:04:50.402Z,70.0
2019-01-30T11:06:50.641Z,69.8
2019-01-30T11:08:50.609Z,68.8
2019-01-30T11:10:51.517Z,68.4
2019-01-30T11:12:50.737Z,69.9
2019-01-30T11:14:50.122Z,69.9
2019-01-30T11:16:50.423Z,67.9
2019-01-30T11:18:50.556Z,69.2
2019-01-30T11:20:50.857Z,67.1
2019-01-30T11:22:50.194Z,68.2
2019-01-30T11:24:50.376Z,68.2
2019-01-30T11:26:50.735Z,64.4
2019-01-30T11:28:49.967Z,65.8
2019-01-30T11:30:50.208Z,63.9
2019-01-30T11:32:50.360Z,63.4
2019-01-30T11:34:50.695Z,64.2
2019-01-30T11:36:50.150Z,64
2019-01-30T11:38:50.397Z,63
2019-01-30T11:40:50.679Z,63
2019-01-30T11:42:49.990Z,63
2019-01-30T11:44:50.241Z,63
2019-01-30T11:46:50.623Z,63
2019-01-30T11:48:57.309Z,62
2019-01-30T11:50:50.466Z,62
2019-01-30T11:52:50.646Z,62
2019-01-30T11:54:50.811Z,63
2019-01-30T11:56:50.405Z,64.5
2019-01-30T11:58:50.403Z,63.4
2019-01-30T12:00:50.365Z,63.2
2019-01-30T12:02:50.453Z,63.2
2019-01-30T12:04:49.916Z,65.3
2019-01-30T12:06:50.433Z,66.8
2019-01-30T12:08:50.692Z,67.2
2019-01-30T12:10:50.858Z,65.9
2019-01-30T12:12:50.064Z,64.5
2019-01-30T12:14:50.295Z,63.4
2019-01-30T12:16:50.700Z,64.0
2019-01-30T12:18:50.879Z,63.0
2019-01-30T12:20:52.580Z,63.0
2019-01-30T12:22:50.736Z,62.7
2019-01-30T12:24:50.234Z,62.0
2019-01-30T12:26:50.540Z,63.2
2019-01-30T12:28:50.739Z,63.8
2019-01-30T12:30:50.930Z,61.5
2019-01-30T12:32:50.412Z,62.7
2019-01-30T12:34:49.944Z,62.5
2019-01-30T12:36:50.409Z,62.9
2019-01-30T12:38:50.717Z,63.6
2019-01-30T12:40:50.883Z,63.3
2019-01-30T12:42:50.102Z,64.8
2019-01-30T12:44:50.346Z,65.2
2019-01-30T12:46:50.776Z,65.0
2019-01-30T12:48:49.993Z,65.1
2019-01-30T12:50:50.151Z,65.1
2019-01-30T12:52:50.140Z,65.6
2019-01-30T12:54:50.176Z,65.4
2019-01-30T12:56:50.371Z,65.3
2019-01-30T12:58:50.348Z,65.4
2019-01-30T13:00:50.673Z,66.5
2019-01-30T13:02:50.034Z,65.3
2019-01-30T13:04:50.534Z,65.3
2019-01-30T13:06:50.042Z,65.6
2019-01-30T13:08:50.212Z,65.7
2019-01-30T13:10:50.463Z,66.4
2019-01-30T13:12:50.749Z,65.2
2019-01-30T13:14:50.944Z,66.2
2019-01-30T13:16:50.392Z,66.9
2019-01-30T13:18:50.482Z,66.2
2019-01-30T13:20:50.745Z,66.9
2019-01-30T13:22:49.966Z,66.5
2019-01-30T13:24:50.201Z,66.6
2019-01-30T13:26:50.567Z,66.4
2019-01-30T13:28:50.822Z,67.5
2019-01-30T13:30:49.974Z,67.0
2019-01-30T13:32:50.214Z,65.9
2019-01-30T13:34:50.496Z,67.9
2019-01-30T13:36:50.642Z,67.8
2019-01-30T13:38:50.768Z,66.0
2019-01-30T13:40:50.730Z,68.1
2019-01-30T13:42:49.868Z,68.9
2019-01-30T13:44:49.890Z,70.2
2019-01-30T13:46:50.132Z,70.2
2019-01-30T13:48:50.238Z,69.3
2019-01-30T13:50:50.317Z,68.2
2019-01-30T13:52:50.389Z,69.9
2019-01-30T13:54:50.465Z,69.7
2019-01-30T13:56:49.813Z,70.1
2019-01-30T13:58:49.932Z,69.5
2019-01-30T14:00:49.944Z,70.6
2019-01-30T14:02:50.220Z,70.3
2019-01-30T14:05:00.214Z,71.0
2019-01-30T14:06:50.372Z,71.3
2019-01-30T14:08:50.438Z,71.7
2019-01-30T14:10:50.508Z,70.3
2019-01-30T14:12:50.571Z,71.1
2019-01-30T14:14:50.608Z,70.2
2019-01-30T14:16:49.956Z,72.6
2019-01-30T14:18:50.112Z,72.2
2019-01-30T14:20:50.693Z,71.3
2019-01-30T14:22:50.786Z,72.2
2019-01-30T14:24:50.377Z,72.1
2019-01-30T14:26:50.636Z,72.0
2019-01-30T14:28:50.734Z,72.8
2019-01-30T14:30:49.875Z,72.8
2019-01-30T14:32:50.074Z,73.8
2019-01-30T14:34:50.442Z,72.0
2019-01-30T14:36:50.874Z,73.0
2019-01-30T14:38:50.044Z,72.3
2019-01-30T14:40:50.063Z,72.4
2019-01-30T14:42:50.219Z,72.2
2019-01-30T14:44:50.269Z,72.8
2019-01-30T14:46:50.656Z,72.7
2019-01-30T14:48:50.737Z,74.8
2019-01-30T14:50:50.774Z,73.2
2019-01-30T14:52:50.014Z,73.8
2019-01-30T14:54:50.099Z,73.8
2019-01-30T14:56:50.309Z,73.9
2019-01-30T14:58:50.343Z,73.9
2019-01-30T15:00:50.418Z,73.1
2019-01-30T15:02:50.527Z,73.0
2019-01-30T15:04:50.742Z,73.9
2019-01-30T15:06:50.018Z,74.1
2019-01-30T15:08:50.089Z,74.1
2019-01-30T15:10:50.058Z,73.1
2019-01-30T15:12:50.307Z,72.0
2019-01-30T15:14:50.369Z,73.5
2019-01-30T15:16:50.598Z,72.9
2019-01-30T15:18:50.683Z,73.3
2019-01-30T15:20:50.755Z,73.6
2019-01-30T15:22:50.715Z,73.0
2019-01-30T15:24:49.785Z,73.4
2019-01-30T15:26:49.926Z,73.9
2019-01-30T15:28:50.004Z,73.0
2019-01-30T15:30:50.036Z,73.0
2019-01-30T15:32:50.011Z,73.1
2019-01-30T15:34:50.381Z,73.7
2019-01-30T15:36:50.637Z,74.0
2019-01-30T15:38:50.615Z,74.5
2019-01-30T15:40:49.849Z,73.6
2019-01-30T15:42:50.129Z,74.9
2019-01-30T15:44:50.692Z,74.9
2019-01-30T15:46:50.027Z,75.1
2019-01-30T15:48:50.101Z,73.4
2019-01-30T15:50:50.096Z,73.6
2019-01-30T15:52:50.280Z,73.7
2019-01-30T15:54:50.383Z,74.2
2019-01-30T15:56:50.622Z,73.8
2019-01-30T15:58:50.749Z,74.4
2019-01-30T16:00:49.985Z,75.2
2019-01-30T16:02:50.052Z,74.6
2019-01-30T16:04:50.288Z,74.8
2019-01-30T16:06:50.510Z,75.8
2019-01-30T16:08:50.501Z,75.8
2019-01-30T16:10:50.483Z,76.2
2019-01-30T16:12:50.485Z,74.1
2019-01-30T16:14:50.428Z,74.1
2019-01-30T16:16:50.674Z,73.4
2019-01-30T16:18:50.649Z,74.3
2019-01-30T16:20:50.685Z,74.6
2019-01-30T16:22:50.646Z,74.9
2019-01-30T16:24:50.610Z,74.1
2019-01-30T16:26:49.879Z,74.2
2019-01-30T16:28:50.007Z,74.7
2019-01-30T16:30:50.054Z,74.2
2019-01-30T16:32:50.071Z,74.5
2019-01-30T16:34:50.343Z,75.1
2019-01-30T16:36:50.687Z,76.0
2019-01-30T16:38:50.744Z,75.5
2019-01-30T16:40:50.759Z,75.5
2019-01-30T16:42:49.907Z,75.3
2019-01-30T16:44:50.003Z,75.0
2019-01-30T16:46:50.235Z,76.3
2019-01-30T16:48:50.312Z,76.9
2019-01-30T16:50:50.276Z,76.9
2019-01-30T16:52:50.408Z,76.6
2019-01-30T16:54:50.547Z,77.1
2019-01-30T16:56:49.860Z,76.4
2019-01-30T16:58:49.894Z,76.6
2019-01-30T17:00:50.040Z,75.8
2019-01-30T17:02:50.083Z,75.6
2019-01-30T17:04:50.328Z,76.1
2019-01-30T17:06:50.550Z,75.4
2019-01-30T17:08:50.609Z,76.4
2019-01-30T17:10:50.764Z,75.8
2019-01-30T17:12:49.800Z,76.7
2019-01-30T17:14:49.771Z,76.1
2019-01-30T17:16:50.033Z,76.4
2019-01-30T17:18:50.004Z,76.4
2019-01-30T17:20:50.014Z,72.5
2019-01-30T17:22:50.011Z,72.1
2019-01-30T17:24:50.059Z,73.6
2019-01-30T17:26:50.180Z,72.9
2019-01-30T17:28:50.192Z,72.0
2019-01-30T17:30:50.296Z,72.6
2019-01-30T17:32:50.314Z,72.9
2019-01-30T17:34:52.448Z,72.2
2019-01-30T17:36:50.623Z,72.0
2019-01-30T17:38:50.688Z,72.4
2019-01-30T17:40:50.642Z,72.4
2019-01-30T17:42:49.791Z,72.6
2019-01-30T17:44:50.769Z,73.1
2019-01-30T17:46:50.055Z,73.3
2019-01-30T17:48:49.989Z,73.4
2019-01-30T17:50:49.978Z,73.7
2019-01-30T17:52:49.949Z,74.0
2019-01-30T17:54:49.970Z,75.0
2019-01-30T17:56:50.178Z,74.9
2019-01-30T17:58:50.199Z,75.0
2019-01-30T18:00:50.214Z,75.3
2019-01-30T18:02:50.310Z,75.8
2019-01-30T18:04:50.607Z,76.1
2019-01-30T18:06:49.969Z,76.9
2019-01-30T18:08:50.006Z,76.7
2019-01-30T18:10:49.979Z,77.5
2019-01-30T18:12:49.935Z,78.8
2019-01-30T18:14:50.033Z,76.1
2019-01-30T18:16:50.255Z,76.0
2019-01-30T18:18:50.344Z,75.3
2019-01-30T18:20:50.349Z,76.0
2019-01-30T18:22:50.385Z,76.6
2019-01-30T18:24:50.389Z,78.2
2019-01-30T18:26:50.583Z,77.9
2019-01-30T18:28:50.565Z,77.8
2019-01-30T18:30:50.600Z,78.3
2019-01-30T18:32:50.617Z,76.9
2019-01-30T18:34:49.961Z,77.8
2019-01-30T18:36:50.206Z,77.0
2019-01-30T18:38:50.247Z,76.7
2019-01-30T18:40:50.290Z,77.0
2019-01-30T18:42:50.381Z,76.8
2019-01-30T18:44:50.359Z,77.5
2019-01-30T18:46:50.562Z,78.6
2019-01-30T18:48:50.547Z,76.6
2019-01-30T18:50:50.614Z,77.4
2019-01-30T18:52:50.633Z,77.2
2019-01-30T18:54:50.661Z,76.5
2019-01-30T18:56:49.913Z,75.7
2019-01-30T18:58:49.931Z,75.7
2019-01-30T19:00:49.987Z,75.6
2019-01-30T19:02:50.056Z,75.6
2019-01-30T19:04:50.382Z,75.1
2019-01-30T19:06:53.143Z,75.1
2019-01-30T19:08:50.159Z,75.3
2019-01-30T19:10:50.216Z,76.8
2019-01-30T19:12:50.327Z,75.6
2019-01-30T19:14:50.417Z,76.5
2019-01-30T19:16:50.632Z,76.5
2019-01-30T19:18:50.759Z,77.0
2019-01-30T19:20:49.805Z,76.8
2019-01-30T19:22:49.823Z,76.4
2019-01-30T19:24:49.998Z,76.5
2019-01-30T19:26:50.216Z,76.7
2019-01-30T19:28:50.273Z,76.8
2019-01-30T19:30:50.234Z,77.4
2019-01-30T19:32:50.210Z,76.6
2019-01-30T19:34:50.535Z,76.6
2019-01-30T19:36:49.860Z,76.5
2019-01-30T19:38:49.979Z,76.7
2019-01-30T19:40:50.073Z,75.8
2019-01-30T19:42:50.145Z,75.6
2019-01-30T19:44:50.174Z,75.7
2019-01-30T19:46:50.454Z,75.4
2019-01-30T19:48:50.463Z,75.5
2019-01-30T19:50:50.496Z,75.6
2019-01-30T19:52:50.566Z,76.1
2019-01-30T19:54:50.559Z,75.4
2019-01-30T19:56:49.784Z,75.1
2019-01-30T19:58:49.850Z,75.0
2019-01-30T20:00:50.117Z,74.6
2019-01-30T20:02:50.125Z,75.2
2019-01-30T20:04:50.437Z,74.6
2019-01-30T20:06:50.745Z,74.1
2019-01-30T20:08:50.845Z,73.7
2019-01-30T20:10:49.993Z,74.4
2019-01-30T20:12:50.002Z,73.7
2019-01-30T20:14:49.967Z,73.6
2019-01-30T20:16:50.456Z,73.8
2019-01-30T20:18:50.505Z,74.3
2019-01-30T20:20:50.534Z,74.5
2019-01-30T20:22:50.601Z,74.1
2019-01-30T20:24:50.651Z,74.0
2019-01-30T20:26:49.963Z,73.9
2019-01-30T20:28:50.100Z,74.0
2019-01-30T20:30:50.103Z,74.3
2019-01-30T20:32:50.173Z,74.1
2019-01-30T20:34:50.673Z,74.7
2019-01-30T20:36:50.116Z,74.6
2019-01-30T20:38:50.165Z,75.4
2019-01-30T20:40:50.179Z,74.2
2019-01-30T20:42:53.244Z,73.7
2019-01-30T20:44:50.323Z,73.3
2019-01-30T20:46:50.564Z,73.4
2019-01-30T20:48:52.505Z,73.4
2019-01-30T20:50:50.630Z,75.3
2019-01-30T20:52:50.652Z,73.7
2019-01-30T20:55:00.665Z,72.9
2019-01-30T20:56:49.795Z,73.1
2019-01-30T20:58:49.812Z,73.4
2019-01-30T21:00:49.835Z,73.3
2019-01-30T21:02:50.002Z,73.5
2019-01-30T21:04:50.348Z,73.8
2019-01-30T21:06:50.593Z,73.7
2019-01-30T21:08:50.614Z,73.9
2019-01-30T21:10:50.560Z,74.4
2019-01-30T21:12:50.639Z,74.8
2019-01-30T21:14:50.637Z,74.6
2019-01-30T21:16:49.931Z,74.9
2019-01-30T21:18:49.951Z,75.6
2019-01-30T21:20:50.099Z,75.8
2019-01-30T21:22:50.203Z,76.0
2019-01-30T21:24:50.231Z,76.4
2019-01-30T21:26:50.683Z,76.3
2019-01-30T21:28:50.672Z,76.7
2019-01-30T21:30:49.899Z,77.0
2019-01-30T21:32:49.915Z,77.4
2019-01-30T21:34:50.383Z,78.1
2019-01-30T21:36:50.610Z,79.1
2019-01-30T21:38:50.685Z,79.2
2019-01-30T21:40:50.735Z,79.6
2019-01-30T21:42:49.813Z,79.0
2019-01-30T21:44:49.917Z,79.3
2019-01-30T21:46:50.226Z,79.5
2019-01-30T21:48:50.261Z,79.3
2019-01-30T21:50:50.323Z,80.4
2019-01-30T21:52:50.459Z,80.4
2019-01-30T21:54:50.550Z,80.4
2019-01-30T21:56:49.842Z,80.2
2019-01-30T21:58:49.797Z,81.1
2019-01-30T22:00:49.879Z,81.0
2019-01-30T22:02:50.075Z,81.1
2019-01-30T22:04:50.392Z,82.3
2019-01-30T22:06:50.547Z,82.5
2019-01-30T22:08:50.591Z,81.8
2019-01-30T22:10:50.655Z,82.3
2019-01-30T22:12:49.795Z,83.1
2019-01-30T22:14:49.827Z,82.7
2019-01-30T22:16:50.089Z,83.8
2019-01-30T22:18:50.147Z,83.2
2019-01-30T22:20:50.219Z,83.9
2019-01-30T22:22:50.240Z,83.9
2019-01-30T22:24:50.297Z,84.8
2019-01-30T22:26:50.681Z,85.4
2019-01-30T22:28:50.672Z,86.3
2019-01-30T22:30:50.723Z,86.2
